ΕΜΥ, Εθνική Μετεωρολογική Υπηρεσία - Δελτία Καιρού, Προγνώσεις

ΑΕΡΟΝΑΥΤΙΛΙΑ

GREEK AIRPORTS CODES

TAF LGSA 251100Z 2512/2612 01015KT 9999 FEW020 SCT030 SCT080 TEMPO 2512/2612 01015G25KT PROB30 TEMPO 2512/2606 RA FEW018 BKN025 BKN080=

EUROPEAN AIRPORTS CODES

UUWW 251100Z 31003MPS 9999 BKN016 01/M01 Q1014 R01/290050NOSIG=